Time;durP1;ratioP1;P1;durP2;ratioP2;P2;SDS_P1;SDS_P2;PMS_P1;PMS_P2;Temp;Humidity;BMP_temperature;BMP_pressure;BME280_temperature;BME280_humidity;BME280_pressure;Samples;Min_cycle;Max_cycle;Signal;HPM_P1;HPM_P2
2023/01/01 00:02:08;;;;;;;34.70;31.20;;;16.10;1.00;;;;;;6054061;23;20425;-84
2023/01/01 00:04:38;;;;;;;35.80;32.20;;;16.10;1.00;;;;;;6055725;23;20780;-84
2023/01/01 00:07:08;;;;;;;28.57;25.97;;;16.10;1.00;;;;;;6053166;23;20499;-85
2023/01/01 00:12:49;;;;;;;27.90;25.17;;;16.10;1.00;;;;;;6025295;23;20393;-85
2023/01/01 00:15:27;;;;;;;31.97;28.77;;;16.10;1.00;;;;;;6036565;23;20450;-84
2023/01/01 00:18:07;;;;;;;22.13;19.27;;;16.10;1.00;;;;;;6083230;23;20443;-85
2023/01/01 00:20:50;;;;;;;20.03;18.00;;;16.10;1.00;;;;;;6114204;23;20525;-88
2023/01/01 00:23:21;;;;;;;20.70;18.43;;;16.10;1.00;;;;;;6115943;23;20390;-89
2023/01/01 00:25:51;;;;;;;18.60;16.80;;;16.10;1.00;;;;;;6116105;23;20436;-87
2023/01/01 00:28:20;;;;;;;26.80;21.97;;;16.10;1.00;;;;;;6114795;23;20458;-88
2023/01/01 00:30:50;;;;;;;19.43;17.63;;;16.10;1.00;;;;;;6102433;23;21058;-87
2023/01/01 00:33:20;;;;;;;22.20;17.50;;;16.10;1.00;;;;;;6126955;23;20434;-88
2023/01/01 00:36:09;;;;;;;16.13;14.60;;;16.10;1.00;;;;;;6115429;23;20401;-87
2023/01/01 00:38:41;;;;;;;13.33;11.93;;;16.10;1.00;;;;;;6091877;23;20473;-88
2023/01/01 00:41:11;;;;;;;16.70;13.90;;;16.10;1.00;;;;;;6114527;23;20446;-88
2023/01/01 00:43:40;;;;;;;16.97;14.40;;;16.20;1.00;;;;;;6116846;23;21214;-88
2023/01/01 00:46:11;;;;;;;16.33;14.67;;;16.20;1.00;;;;;;6101375;23;20486;-88
2023/01/01 00:48:39;;;;;;;14.77;13.40;;;16.20;1.00;;;;;;6128761;23;20431;-88
2023/01/01 00:51:09;;;;;;;14.33;13.00;;;16.20;1.00;;;;;;6115513;23;20414;-85
2023/01/01 00:53:49;;;;;;;15.47;13.83;;;16.10;1.00;;;;;;6114238;23;20416;-84
2023/01/01 00:56:24;;;;;;;12.90;9.80;;;16.20;1.00;;;;;;6096494;23;20407;-85
2023/01/01 00:59:06;;;;;;;11.97;10.73;;;16.20;1.00;;;;;;6094063;23;20392;-77
2023/01/01 01:01:34;;;;;;;13.47;9.77;;;16.20;1.00;;;;;;6102989;23;20442;-79
2023/01/01 01:04:05;;;;;;;13.40;10.50;;;16.20;1.00;;;;;;6107928;23;20446;-78
2023/01/01 01:06:35;;;;;;;14.53;9.27;;;16.20;1.00;;;;;;6106787;23;20434;-78
2023/01/01 01:09:06;;;;;;;14.23;11.30;;;16.20;1.00;;;;;;6101078;23;20432;-77
2023/01/01 01:11:33;;;;;;;15.97;11.77;;;16.20;1.00;;;;;;6107313;23;20442;-79
2023/01/01 01:14:05;;;;;;;11.33;8.93;;;16.30;1.00;;;;;;6109782;23;20891;-77
2023/01/01 01:16:34;;;;;;;13.67;9.50;;;16.30;1.00;;;;;;6110988;23;21219;-77
2023/01/01 01:19:18;;;;;;;15.13;11.90;;;16.30;1.00;;;;;;6098003;23;20497;-77
2023/01/01 01:21:55;;;;;;;21.57;15.30;;;16.30;1.00;;;;;;6096374;23;20449;-78
2023/01/01 01:24:26;;;;;;;17.80;14.10;;;16.30;1.00;;;;;;6097528;23;20430;-78
2023/01/01 01:26:55;;;;;;;16.33;11.93;;;16.30;1.00;;;;;;6105902;23;20461;-78
2023/01/01 01:29:24;;;;;;;13.93;10.20;;;16.20;1.00;;;;;;6116101;23;20773;-77
2023/01/01 01:31:53;;;;;;;13.50;11.00;;;16.20;1.00;;;;;;6111420;23;20470;-78
2023/01/01 01:34:32;;;;;;;14.60;11.10;;;16.20;1.00;;;;;;6109244;23;20823;-77
2023/01/01 01:37:01;;;;;;;11.90;10.60;;;16.20;1.00;;;;;;6109238;23;20426;-76
2023/01/01 01:39:36;;;;;;;12.57;10.27;;;16.20;1.00;;;;;;6082132;23;20402;-78
2023/01/01 01:42:04;;;;;;;16.00;11.80;;;16.20;1.00;;;;;;6108958;23;20504;-77
2023/01/01 01:45:04;;;;;;;12.80;10.23;;;16.20;1.00;;;;;;6105508;23;20449;-78
2023/01/01 01:47:37;;;;;;;10.73;9.63;;;16.10;1.00;;;;;;6109220;23;20500;-78
2023/01/01 01:50:16;;;;;;;11.37;8.23;;;16.10;1.00;;;;;;6082990;23;20466;-78
2023/01/01 01:52:56;;;;;;;11.87;8.53;;;16.10;1.00;;;;;;6106979;23;20440;-77
2023/01/01 01:55:24;;;;;;;9.70;6.77;;;16.10;1.00;;;;;;6106278;23;20493;-77
2023/01/01 01:57:54;;;;;;;8.93;7.73;;;16.10;1.00;;;;;;6107794;23;20394;-77
2023/01/01 02:00:23;;;;;;;11.90;7.90;;;16.10;1.00;;;;;;6106817;23;20450;-77
2023/01/01 02:02:58;;;;;;;9.53;7.20;;;16.10;1.00;;;;;;6108703;23;20417;-79
2023/01/01 02:05:27;;;;;;;9.53;7.83;;;16.20;1.00;;;;;;6070682;23;20537;-77
2023/01/01 02:07:56;;;;;;;8.73;6.57;;;16.30;1.00;;;;;;6126864;23;20416;-78
2023/01/01 02:10:23;;;;;;;9.77;6.30;;;16.30;1.00;;;;;;6106526;23;20408;-77
2023/01/01 02:12:53;;;;;;;8.10;6.63;;;16.30;1.00;;;;;;6114173;23;21216;-77
2023/01/01 02:15:25;;;;;;;7.90;6.30;;;16.30;1.00;;;;;;6098456;23;20713;-78
2023/01/01 02:18:02;;;;;;;6.43;5.83;;;16.30;1.00;;;;;;6128533;23;20391;-79
2023/01/01 02:21:03;;;;;;;9.83;6.47;;;16.40;1.00;;;;;;6084877;23;20395;-77
2023/01/01 02:24:12;;;;;;;7.63;5.83;;;16.30;1.00;;;;;;6120093;23;20398;-77
2023/01/01 02:26:52;;;;;;;12.50;7.00;;;16.30;1.00;;;;;;6095112;23;20485;-77
2023/01/01 02:29:38;;;;;;;9.00;7.73;;;16.40;1.00;;;;;;6103925;23;20436;-77
2023/01/01 02:32:13;;;;;;;8.63;6.27;;;16.40;1.00;;;;;;6108152;23;20427;-78
2023/01/01 02:34:46;;;;;;;8.13;6.23;;;16.30;1.00;;;;;;6108636;23;20438;-78
2023/01/01 02:37:18;;;;;;;9.87;7.10;;;16.30;1.00;;;;;;6108304;23;20394;-77
2023/01/01 02:39:54;;;;;;;8.80;6.80;;;16.30;1.00;;;;;;6107810;23;20428;-77
2023/01/01 02:42:25;;;;;;;8.20;7.13;;;16.20;1.00;;;;;;6107182;23;20430;-76
2023/01/01 02:44:59;;;;;;;9.23;7.07;;;16.20;1.00;;;;;;6105430;23;20422;-78
2023/01/01 02:47:26;;;;;;;10.13;7.00;;;16.10;1.00;;;;;;6081104;23;20506;-77
2023/01/01 02:50:06;;;;;;;8.80;6.87;;;16.10;1.00;;;;;;6109968;23;20410;-76
2023/01/01 02:53:00;;;;;;;9.43;6.70;;;16.10;1.00;;;;;;6109820;23;20437;-78
2023/01/01 02:55:44;;;;;;;6.53;5.93;;;16.10;1.00;;;;;;6090434;23;20474;-78
2023/01/01 03:01:23;;;;;;;9.70;6.73;;;16.00;1.00;;;;;;6105539;23;20473;-77
2023/01/01 03:04:01;;;;;;;8.30;5.80;;;16.00;1.00;;;;;;6106454;23;20409;-78
2023/01/01 03:06:37;;;;;;;7.67;6.87;;;16.00;1.00;;;;;;6106400;23;20409;-77
2023/01/01 03:09:19;;;;;;;8.20;6.17;;;16.00;1.00;;;;;;6105996;23;20420;-77
2023/01/01 03:11:54;;;;;;;6.90;5.57;;;16.00;1.00;;;;;;6108409;23;20450;-78
2023/01/01 03:14:37;;;;;;;6.63;5.40;;;15.90;1.00;;;;;;6108033;23;20389;-78
2023/01/01 03:17:25;;;;;;;5.80;5.23;;;15.90;1.00;;;;;;6108453;23;20440;-78
2023/01/01 03:20:01;;;;;;;6.17;5.23;;;15.90;1.00;;;;;;6109258;23;20412;-78
2023/01/01 03:22:36;;;;;;;6.00;5.40;;;15.90;1.00;;;;;;6106069;23;20417;-78
2023/01/01 03:25:07;;;;;;;6.50;5.10;;;15.80;1.00;;;;;;6106430;23;20429;-78
2023/01/01 03:27:41;;;;;;;8.83;4.80;;;15.90;1.00;;;;;;6108490;23;20436;-77
2023/01/01 03:30:21;;;;;;;8.03;4.93;;;15.90;1.00;;;;;;6094015;23;20750;-77
2023/01/01 03:33:03;;;;;;;8.00;4.27;;;15.80;1.00;;;;;;6118509;23;20425;-78
2023/01/01 03:35:40;;;;;;;7.80;5.27;;;15.80;1.00;;;;;;6107103;23;20509;-77
2023/01/01 03:38:14;;;;;;;6.40;4.87;;;15.90;1.00;;;;;;6106906;23;20423;-78
2023/01/01 03:40:54;;;;;;;6.60;5.30;;;15.90;1.00;;;;;;6104876;23;20458;-77
2023/01/01 03:43:28;;;;;;;6.23;4.60;;;15.80;1.00;;;;;;6106228;23;20497;-78
2023/01/01 03:46:00;;;;;;;5.60;5.10;;;15.80;1.00;;;;;;6104689;23;20429;-77
2023/01/01 03:48:28;;;;;;;6.33;5.43;;;15.80;1.00;;;;;;6102323;23;20454;-76
2023/01/01 03:51:23;;;;;;;6.90;5.00;;;15.70;1.00;;;;;;6106052;23;20445;-77
2023/01/01 03:53:58;;;;;;;6.67;4.93;;;15.60;1.00;;;;;;6105128;23;20484;-78
2023/01/01 03:56:53;;;;;;;10.10;5.30;;;15.60;1.00;;;;;;6106119;23;20421;-78
2023/01/01 03:59:27;;;;;;;10.13;5.83;;;15.60;1.00;;;;;;6104171;23;20553;-78
2023/01/01 04:01:58;;;;;;;6.40;4.90;;;15.60;1.00;;;;;;6094829;23;20437;-78
2023/01/01 04:04:27;;;;;;;6.30;5.17;;;15.60;1.00;;;;;;6099838;23;20419;-77
2023/01/01 04:06:57;;;;;;;6.73;5.47;;;15.60;1.00;;;;;;6092577;23;20426;-77
2023/01/01 04:09:34;;;;;;;9.10;4.97;;;15.60;1.00;;;;;;6094562;23;20436;-76
2023/01/01 04:12:04;;;;;;;11.03;5.87;;;15.60;1.00;;;;;;6096559;23;20933;-78
2023/01/01 04:14:38;;;;;;;7.83;5.50;;;15.50;1.00;;;;;;6091068;23;20820;-78
2023/01/01 04:17:07;;;;;;;5.93;5.43;;;15.50;1.00;;;;;;6090696;23;20433;-78
2023/01/01 04:19:36;;;;;;;5.80;5.20;;;15.50;1.00;;;;;;6095883;23;20421;-77
2023/01/01 04:22:04;;;;;;;6.20;5.60;;;15.50;1.00;;;;;;6093656;23;20422;-78
2023/01/01 04:24:39;;;;;;;9.93;5.87;;;15.50;1.00;;;;;;6089067;23;20387;-77
2023/01/01 04:27:06;;;;;;;8.67;5.87;;;15.50;1.00;;;;;;6090486;23;20430;-78
2023/01/01 04:29:37;;;;;;;6.60;5.50;;;15.50;1.00;;;;;;6094753;23;20424;-77
2023/01/01 04:32:06;;;;;;;9.83;5.37;;;15.40;1.00;;;;;;6091585;23;20428;-78
2023/01/01 04:34:44;;;;;;;7.60;5.30;;;15.50;1.00;;;;;;6089605;23;20402;-77
2023/01/01 04:37:18;;;;;;;8.20;6.13;;;15.50;1.00;;;;;;6089357;23;20387;-77
2023/01/01 04:39:47;;;;;;;6.23;5.23;;;15.40;1.00;;;;;;6094463;23;21223;-77
2023/01/01 04:42:17;;;;;;;5.73;5.10;;;15.40;1.00;;;;;;6089671;23;20449;-78
2023/01/01 04:44:44;;;;;;;7.10;5.30;;;15.40;1.00;;;;;;6087710;23;20465;-78
2023/01/01 04:47:11;;;;;;;6.70;5.17;;;15.40;1.00;;;;;;6088335;23;20425;-77
2023/01/01 04:49:39;;;;;;;9.27;5.53;;;15.40;1.00;;;;;;6089850;23;20512;-78
2023/01/01 04:52:06;;;;;;;7.43;5.00;;;15.40;1.00;;;;;;6085850;23;20509;-78
2023/01/01 04:54:33;;;;;;;5.07;4.33;;;15.40;1.00;;;;;;6069277;23;21258;-77
2023/01/01 04:57:02;;;;;;;10.80;5.40;;;15.40;1.00;;;;;;6060669;23;20670;-79
2023/01/01 04:59:30;;;;;;;5.23;4.53;;;15.30;1.00;;;;;;6080960;23;21193;-79
2023/01/01 05:01:57;;;;;;;6.53;4.60;;;15.40;1.00;;;;;;6082853;23;20432;-79
2023/01/01 05:04:25;;;;;;;4.97;4.27;;;15.40;1.00;;;;;;6077509;23;20423;-78
2023/01/01 05:06:53;;;;;;;5.47;4.37;;;15.40;1.00;;;;;;6089299;23;20911;-79
2023/01/01 05:09:22;;;;;;;4.13;3.60;;;15.40;1.00;;;;;;6083916;23;20431;-79
2023/01/01 05:11:49;;;;;;;6.23;4.37;;;15.40;1.00;;;;;;6081647;23;20491;-80
2023/01/01 05:14:17;;;;;;;5.10;4.60;;;15.40;1.00;;;;;;6087297;23;21248;-79
2023/01/01 05:16:44;;;;;;;5.00;4.53;;;15.40;1.00;;;;;;6082854;23;20440;-78
2023/01/01 05:19:12;;;;;;;4.23;3.77;;;15.40;1.00;;;;;;6082592;23;20820;-79
2023/01/01 05:21:40;;;;;;;5.33;3.90;;;15.40;1.00;;;;;;6073762;23;20441;-79
2023/01/01 05:24:10;;;;;;;6.13;3.97;;;15.40;1.00;;;;;;6078557;23;20452;-79
2023/01/01 05:26:39;;;;;;;7.43;4.00;;;15.40;1.00;;;;;;6084775;23;20504;-79
2023/01/01 05:29:06;;;;;;;4.50;3.67;;;15.40;1.00;;;;;;6077197;23;20440;-78
2023/01/01 05:31:35;;;;;;;9.63;3.60;;;15.40;1.00;;;;;;6077560;23;20841;-78
2023/01/01 05:34:05;;;;;;;5.13;4.07;;;15.40;1.00;;;;;;6077807;23;20429;-79
2023/01/01 05:36:39;;;;;;;4.90;3.60;;;15.40;1.00;;;;;;6088126;23;20434;-80
2023/01/01 05:39:08;;;;;;;6.77;4.40;;;15.40;1.00;;;;;;6086009;23;20432;-79
2023/01/01 05:41:37;;;;;;;5.27;3.80;;;15.40;1.00;;;;;;6084302;23;20434;-80
2023/01/01 05:44:06;;;;;;;4.33;3.40;;;15.40;1.00;;;;;;6082163;23;20473;-79
2023/01/01 05:46:37;;;;;;;7.90;4.27;;;15.40;1.00;;;;;;6089160;23;21272;-79
2023/01/01 05:49:04;;;;;;;6.07;4.00;;;15.40;1.00;;;;;;6084858;23;20572;-79
2023/01/01 05:51:31;;;;;;;6.50;3.70;;;15.30;1.00;;;;;;6082654;23;20430;-78
2023/01/01 05:53:59;;;;;;;5.37;3.60;;;15.30;1.00;;;;;;6082602;23;20927;-79
2023/01/01 05:56:29;;;;;;;6.50;3.83;;;15.20;1.00;;;;;;6101410;23;20396;-79
2023/01/01 05:58:58;;;;;;;5.53;3.77;;;15.10;1.00;;;;;;6102699;23;20429;-78
2023/01/01 06:01:30;;;;;;;6.50;4.07;;;15.10;1.00;;;;;;6104073;23;20438;-80
2023/01/01 06:03:59;;;;;;;6.23;3.60;;;15.10;1.00;;;;;;6104922;23;20421;-78
2023/01/01 06:06:34;;;;;;;4.20;3.60;;;15.10;1.00;;;;;;6105515;23;20390;-79
2023/01/01 06:09:08;;;;;;;5.80;4.20;;;15.10;1.00;;;;;;6103042;23;20515;-78
2023/01/01 06:11:39;;;;;;;7.60;3.97;;;15.00;1.00;;;;;;6093431;23;20494;-79
2023/01/01 06:14:12;;;;;;;4.20;3.33;;;14.90;1.00;;;;;;6105309;23;20393;-78
2023/01/01 06:16:39;;;;;;;4.73;3.60;;;14.90;1.00;;;;;;6099782;23;20428;-79
2023/01/01 06:19:08;;;;;;;3.87;3.33;;;14.90;1.00;;;;;;6101793;23;20428;-79
2023/01/01 06:21:35;;;;;;;7.90;3.70;;;14.80;1.00;;;;;;6098876;23;20424;-79
2023/01/01 06:24:03;;;;;;;5.10;3.53;;;14.90;1.00;;;;;;6097591;23;20968;-78
2023/01/01 06:26:32;;;;;;;7.07;3.70;;;14.90;1.00;;;;;;6099871;23;20443;-79
2023/01/01 06:29:01;;;;;;;5.40;3.80;;;14.90;1.00;;;;;;6100829;23;20428;-79
2023/01/01 06:31:29;;;;;;;4.37;2.93;;;14.90;1.00;;;;;;6099215;23;20418;-79
2023/01/01 06:33:57;;;;;;;7.13;3.87;;;14.90;1.00;;;;;;6105788;23;20455;-79
2023/01/01 06:36:25;;;;;;;6.00;3.90;;;14.90;1.00;;;;;;6095407;23;20462;-78
2023/01/01 06:38:54;;;;;;;4.47;3.40;;;14.90;1.00;;;;;;6102662;23;20433;-78
2023/01/01 06:41:26;;;;;;;5.20;3.87;;;15.00;1.00;;;;;;6108300;23;20401;-77
2023/01/01 06:43:55;;;;;;;7.97;3.80;;;15.00;1.00;;;;;;6104015;23;20441;-78
2023/01/01 06:46:26;;;;;;;5.93;3.70;;;15.10;1.00;;;;;;6103221;23;20373;-78
2023/01/01 06:48:57;;;;;;;6.50;4.17;;;15.10;1.00;;;;;;6105285;23;20442;-78
2023/01/01 06:51:30;;;;;;;5.33;4.10;;;15.10;1.00;;;;;;6104029;23;20381;-79
2023/01/01 06:53:59;;;;;;;7.80;4.00;;;15.10;1.00;;;;;;6105958;23;20428;-78
2023/01/01 06:56:28;;;;;;;5.40;3.93;;;15.00;1.00;;;;;;6103264;23;20467;-79
2023/01/01 06:58:56;;;;;;;5.33;3.90;;;15.00;1.00;;;;;;6103948;23;20824;-78
2023/01/01 07:01:29;;;;;;;7.03;4.67;;;15.00;1.00;;;;;;6101005;23;20462;-78
2023/01/01 07:03:57;;;;;;;5.33;4.23;;;15.00;1.00;;;;;;6105317;23;20470;-77
2023/01/01 07:06:27;;;;;;;5.57;3.40;;;15.00;1.00;;;;;;6104194;23;20400;-78
2023/01/01 07:08:55;;;;;;;4.87;3.13;;;15.00;1.00;;;;;;6101629;23;20934;-77
2023/01/01 07:11:29;;;;;;;5.90;4.23;;;15.00;1.00;;;;;;6101454;23;20425;-78
2023/01/01 07:13:56;;;;;;;4.47;3.77;;;15.00;1.00;;;;;;6103157;23;20380;-78
2023/01/01 07:16:27;;;;;;;5.37;4.03;;;15.00;1.00;;;;;;6118085;23;20376;-78
2023/01/01 07:18:54;;;;;;;5.80;4.13;;;15.00;1.00;;;;;;6104139;23;20492;-79
2023/01/01 07:21:28;;;;;;;5.50;4.00;;;15.10;1.00;;;;;;6103578;23;20417;-78
2023/01/01 07:23:56;;;;;;;4.40;3.60;;;15.10;1.00;;;;;;6106918;23;20418;-79
2023/01/01 07:26:28;;;;;;;7.23;4.13;;;15.20;1.00;;;;;;6129842;23;20377;-78
2023/01/01 07:28:55;;;;;;;6.40;4.07;;;15.20;1.00;;;;;;6135082;23;20429;-79
2023/01/01 07:31:27;;;;;;;5.30;3.63;;;15.20;1.00;;;;;;6134472;23;20428;-78
2023/01/01 07:33:54;;;;;;;6.40;4.60;;;15.20;1.00;;;;;;6135339;23;20427;-79
2023/01/01 07:36:29;;;;;;;7.00;4.13;;;15.30;1.00;;;;;;6134540;23;20444;-79
2023/01/01 07:38:58;;;;;;;6.70;4.00;;;15.30;1.00;;;;;;6134164;23;20785;-78
2023/01/01 07:41:26;;;;;;;4.43;4.03;;;15.20;1.00;;;;;;6135294;23;20397;-78
2023/01/01 07:43:52;;;;;;;4.40;3.70;;;15.30;1.00;;;;;;6134304;23;20487;-77
2023/01/01 07:46:22;;;;;;;5.27;4.50;;;15.30;1.00;;;;;;6133980;23;20429;-77
2023/01/01 07:48:51;;;;;;;6.20;4.13;;;15.30;1.00;;;;;;6134235;23;20432;-78
2023/01/01 07:51:22;;;;;;;5.83;3.70;;;15.30;1.00;;;;;;6132674;23;20499;-79
2023/01/01 07:53:49;;;;;;;6.90;4.20;;;15.30;1.00;;;;;;6134071;23;21115;-78
2023/01/01 07:56:16;;;;;;;4.30;3.90;;;15.40;1.00;;;;;;6133821;23;20437;-77
2023/01/01 07:58:46;;;;;;;5.57;5.00;;;15.40;1.00;;;;;;6133074;23;20436;-78
2023/01/01 08:01:14;;;;;;;7.20;3.97;;;15.40;1.00;;;;;;6130107;23;20425;-78
2023/01/01 08:03:54;;;;;;;9.20;4.60;;;15.40;1.00;;;;;;6133412;23;20456;-77
2023/01/01 08:06:25;;;;;;;4.70;4.30;;;15.50;1.00;;;;;;6135109;23;20463;-77
2023/01/01 08:08:54;;;;;;;5.37;4.40;;;15.50;1.00;;;;;;6126476;23;20442;-79
2023/01/01 08:11:26;;;;;;;7.20;4.80;;;15.50;1.00;;;;;;6134489;23;20447;-78
2023/01/01 08:13:53;;;;;;;6.10;4.30;;;15.50;1.00;;;;;;6135324;23;20420;-80
2023/01/01 08:16:25;;;;;;;7.33;4.57;;;15.50;1.00;;;;;;6132711;23;20493;-78
2023/01/01 08:18:52;;;;;;;8.17;5.03;;;15.60;1.00;;;;;;6133674;23;20436;-78
2023/01/01 08:21:21;;;;;;;6.77;4.57;;;15.60;1.00;;;;;;6132330;23;20417;-78
2023/01/01 08:23:48;;;;;;;5.20;4.20;;;15.60;1.00;;;;;;6135665;23;20396;-78
2023/01/01 08:26:16;;;;;;;5.60;4.73;;;15.60;1.00;;;;;;6132022;23;20425;-78
2023/01/01 08:28:46;;;;;;;9.30;5.00;;;15.60;1.00;;;;;;6135160;23;20416;-78
2023/01/01 08:31:15;;;;;;;6.70;4.67;;;15.60;1.00;;;;;;6133898;23;20503;-78
2023/01/01 08:33:46;;;;;;;5.17;4.37;;;15.60;1.00;;;;;;6134672;23;20404;-79
2023/01/01 08:36:15;;;;;;;9.00;5.10;;;15.60;1.00;;;;;;6133443;23;20428;-78
2023/01/01 08:38:48;;;;;;;6.60;4.83;;;15.60;1.00;;;;;;6134192;23;20440;-78
2023/01/01 08:41:15;;;;;;;5.47;4.30;;;15.70;1.00;;;;;;6131659;23;20472;-77
2023/01/01 08:43:46;;;;;;;5.40;4.77;;;15.70;1.00;;;;;;6136018;23;20413;-78
2023/01/01 08:46:18;;;;;;;5.07;4.57;;;15.70;1.00;;;;;;6131493;23;20461;-79
2023/01/01 08:48:47;;;;;;;5.70;4.10;;;15.70;1.00;;;;;;6130592;23;20435;-79
2023/01/01 08:51:15;;;;;;;6.70;4.73;;;15.70;1.00;;;;;;6119171;23;20422;-78
2023/01/01 08:53:45;;;;;;;4.67;3.90;;;15.70;1.00;;;;;;6120232;23;20425;-79
2023/01/01 08:56:14;;;;;;;4.40;3.93;;;15.80;1.00;;;;;;6119077;23;21787;-78
2023/01/01 08:58:44;;;;;;;7.07;4.63;;;15.80;1.00;;;;;;6106787;23;20440;-79
2023/01/01 09:01:12;;;;;;;6.17;5.00;;;15.90;1.00;;;;;;6118523;23;20406;-77
2023/01/01 09:03:39;;;;;;;7.60;4.70;;;15.90;1.00;;;;;;6135890;23;20420;-76
2023/01/01 09:06:10;;;;;;;5.13;4.00;;;15.80;1.00;;;;;;6134190;23;20432;-78
2023/01/01 09:08:41;;;;;;;6.00;4.80;;;15.80;1.00;;;;;;6132820;23;20566;-77
2023/01/01 09:11:22;;;;;;;5.37;3.87;;;15.80;1.00;;;;;;6134417;23;20400;-78
2023/01/01 09:13:54;;;;;;;4.87;3.87;;;15.80;1.00;;;;;;6134886;23;20396;-79
2023/01/01 09:16:23;;;;;;;5.73;3.90;;;15.80;1.00;;;;;;6120504;23;20490;-77
2023/01/01 09:18:54;;;;;;;4.57;4.17;;;15.80;1.00;;;;;;6120032;23;20422;-78
2023/01/01 09:21:21;;;;;;;5.33;3.87;;;15.80;1.00;;;;;;6134436;23;20465;-79
2023/01/01 09:23:58;;;;;;;4.80;4.10;;;15.80;1.00;;;;;;6119171;23;20423;-78
2023/01/01 09:26:32;;;;;;;5.07;4.13;;;15.80;1.00;;;;;;6102941;23;20586;-78
2023/01/01 09:29:02;;;;;;;4.40;3.70;;;15.80;1.00;;;;;;6104114;23;21239;-78
2023/01/01 09:31:33;;;;;;;6.00;4.50;;;15.80;1.00;;;;;;6113265;23;20387;-77
2023/01/01 09:34:03;;;;;;;5.93;4.60;;;15.80;1.00;;;;;;6116848;23;21120;-79
2023/01/01 09:36:33;;;;;;;5.63;3.87;;;15.80;1.00;;;;;;6115238;23;20397;-76
2023/01/01 09:39:02;;;;;;;4.70;4.07;;;15.80;1.00;;;;;;6133380;23;20543;-78
2023/01/01 09:41:43;;;;;;;5.40;3.60;;;15.90;1.00;;;;;;6115475;23;20426;-78
2023/01/01 09:44:34;;;;;;;4.73;3.60;;;15.90;1.00;;;;;;6130118;23;20421;-79
2023/01/01 09:47:22;;;;;;;4.33;3.50;;;16.00;1.00;;;;;;6101912;23;20441;-79
2023/01/01 09:49:56;;;;;;;6.70;4.33;;;16.00;1.00;;;;;;6103621;23;21046;-79
2023/01/01 09:52:23;;;;;;;4.93;3.80;;;16.00;1.00;;;;;;6103814;23;20626;-78
2023/01/01 09:55:14;;;;;;;3.83;3.53;;;16.10;1.00;;;;;;6120182;23;20416;-78
2023/01/01 09:57:44;;;;;;;5.10;4.23;;;16.20;1.00;;;;;;6112637;23;20435;-78
2023/01/01 10:00:19;;;;;;;6.30;4.00;;;16.30;1.00;;;;;;6143088;23;20773;-77
2023/01/01 10:03:10;;;;;;;7.93;4.03;;;16.40;1.00;;;;;;6134435;23;20473;-78
2023/01/01 10:05:51;;;;;;;6.00;4.17;;;16.50;1.00;;;;;;6118767;23;20417;-79
2023/01/01 10:08:32;;;;;;;3.93;3.57;;;16.60;1.00;;;;;;6118694;23;20435;-77
2023/01/01 10:11:12;;;;;;;4.13;3.50;;;16.60;1.00;;;;;;6131559;23;20492;-78
2023/01/01 10:13:43;;;;;;;5.87;3.80;;;16.70;1.00;;;;;;6123586;23;20452;-77
2023/01/01 10:16:23;;;;;;;5.00;3.80;;;16.80;1.00;;;;;;6104330;23;20497;-78
2023/01/01 10:18:56;;;;;;;6.67;3.87;;;16.90;1.00;;;;;;6120947;23;20418;-78
2023/01/01 10:21:28;;;;;;;6.13;3.70;;;16.90;1.00;;;;;;6105808;23;20862;-78
2023/01/01 10:23:59;;;;;;;5.27;4.00;;;16.90;1.00;;;;;;6134578;23;20783;-79
2023/01/01 10:26:39;;;;;;;5.77;4.30;;;16.90;1.00;;;;;;6112245;23;21084;-79
2023/01/01 10:29:22;;;;;;;6.17;3.87;;;16.90;1.00;;;;;;6124148;23;20432;-84
2023/01/01 11:13:21;;;;;;;5.90;3.23;;;16.50;1.00;;;;;;6158819;22;1296263;-87
2023/01/01 11:15:52;;;;;;;5.23;3.63;;;16.80;1.00;;;;;;6191912;23;20400;-85
2023/01/01 11:18:34;;;;;;;3.27;2.97;;;16.80;1.00;;;;;;6198071;22;20405;-86
2023/01/01 11:21:10;;;;;;;3.40;2.80;;;16.80;1.00;;;;;;6203432;23;20414;-85
2023/01/01 11:23:40;;;;;;;3.83;2.80;;;16.80;1.00;;;;;;6204643;23;20408;-86
2023/01/01 11:26:23;;;;;;;3.70;2.93;;;16.80;1.00;;;;;;6190160;23;20830;-86
2023/01/01 11:32:10;;;;;;;6.00;3.33;;;16.70;1.00;;;;;;6093879;23;20394;-84
2023/01/01 11:34:51;;;;;;;4.90;2.90;;;16.70;1.00;;;;;;6143993;23;20442;-86
2023/01/01 11:37:49;;;;;;;3.87;2.73;;;16.60;1.00;;;;;;6125037;23;20519;-85
2023/01/01 11:40:29;;;;;;;5.57;2.90;;;16.60;1.00;;;;;;6149657;23;20411;-87
2023/01/01 11:43:08;;;;;;;4.80;2.83;;;16.60;1.00;;;;;;6202723;23;20409;-85
2023/01/01 11:45:40;;;;;;;3.10;2.80;;;16.60;1.00;;;;;;6206841;23;20400;-84
2023/01/01 11:48:42;;;;;;;3.73;2.80;;;16.60;1.00;;;;;;6206506;23;20412;-85
2023/01/01 11:51:31;;;;;;;5.23;3.17;;;16.70;1.00;;;;;;6182134;23;20400;-85
2023/01/01 11:54:31;;;;;;;8.43;3.30;;;16.90;1.00;;;;;;6205181;23;20411;-85
2023/01/01 11:57:33;;;;;;;;;;;;;;;;;;;;;
2023/01/01 12:00:11;;;;;;;4.97;3.07;;;17.10;1.00;;;;;;6190396;23;49385;-85
2023/01/01 12:03:02;;;;;;;3.57;3.07;;;17.10;1.00;;;;;;6206357;23;20431;-86
2023/01/01 12:15:32;;;;;;;5.17;2.97;;;17.20;1.00;;;;;;6217357;23;20400;-86
2023/01/01 12:18:22;;;;;;;;;;;;;;;;;;;;;
2023/01/01 12:24:12;;;;;;;7.50;3.37;;;17.00;1.00;;;;;;6161159;23;20417;-86
2023/01/01 12:27:30;;;;;;;5.60;3.30;;;17.00;1.00;;;;;;6203783;22;20437;-85
2023/01/01 12:30:32;;;;;;;4.03;3.40;;;17.10;1.00;;;;;;6199110;23;20393;-85
2023/01/01 12:37:12;;;;;;;5.30;3.40;;;17.10;1.00;;;;;;6178234;23;20452;-84
2023/01/01 12:40:58;;;;;;;6.70;3.40;;;17.20;1.00;;;;;;6086259;23;20427;-84
2023/01/01 12:44:11;;;;;;;;;;;;;;;;;;;;;
2023/01/01 12:47:20;;;;;;;5.03;3.67;;;17.10;1.00;;;;;;6050697;23;51461;-85
2023/01/01 12:50:12;;;;;;;4.10;3.20;;;17.10;1.00;;;;;;6106816;23;20400;-86
2023/01/01 12:52:59;;;;;;;4.43;2.70;;;17.10;1.00;;;;;;6106459;23;20503;-86
2023/01/01 12:56:19;;;;;;;4.80;3.27;;;17.10;1.00;;;;;;6093897;23;20918;-87
2023/01/01 12:59:09;;;;;;;6.47;3.23;;;17.00;1.00;;;;;;6145820;23;20438;-85
2023/01/01 13:01:49;;;;;;;5.67;3.47;;;16.90;1.00;;;;;;6198877;23;20417;-86
2023/01/01 13:04:33;;;;;;;;;;;;;;;;;;;;;
2023/01/01 13:07:06;;;;;;;5.13;3.50;;;16.80;1.00;;;;;;6179734;23;41450;-85
2023/01/01 13:09:49;;;;;;;5.90;3.13;;;16.80;1.00;;;;;;6171514;23;20436;-85
2023/01/01 13:12:40;;;;;;;3.50;2.90;;;16.70;1.00;;;;;;6197666;23;20385;-86
2023/01/01 13:16:09;;;;;;;7.10;4.40;;;16.70;1.00;;;;;;6172926;23;20431;-85
2023/01/01 13:18:52;;;;;;;7.50;3.20;;;16.70;1.00;;;;;;6105258;23;20432;-86
2023/01/01 13:21:34;;;;;;;;;;;;;;;;;;;;;
2023/01/01 13:24:21;;;;;;;8.10;3.73;;;16.60;1.00;;;;;;6167658;23;41369;-85
2023/01/01 13:27:00;;;;;;;5.13;3.23;;;16.60;1.00;;;;;;6194438;23;20394;-84
2023/01/01 13:29:53;;;;;;;;;;;;;;;;;;;;;
2023/01/01 13:35:29;;;;;;;5.43;3.70;;;16.40;1.00;;;;;;6199267;23;20456;-84
2023/01/01 13:41:43;;;;;;;4.10;3.03;;;16.40;1.00;;;;;;6183286;23;20877;-85
2023/01/01 13:44:33;;;;;;;5.87;3.40;;;16.30;1.00;;;;;;6209315;23;20511;-87
2023/01/01 13:54:06;;;;;;;5.40;3.53;;;16.20;1.00;;;;;;6133223;23;20399;-90
2023/01/01 13:57:09;;;;;;;6.80;3.67;;;16.10;1.00;;;;;;6189159;23;21300;-85
2023/01/01 14:00:19;;;;;;;6.80;3.73;;;16.10;1.00;;;;;;6196367;23;20403;-84
2023/01/01 14:03:01;;;;;;;4.20;3.80;;;16.00;1.00;;;;;;6195728;23;20548;-86
2023/01/01 14:09:22;;;;;;;5.63;3.70;;;16.00;1.00;;;;;;6196710;23;20973;-86
2023/01/01 14:12:10;;;;;;;5.87;3.80;;;15.90;1.00;;;;;;6178188;23;20426;-85
2023/01/01 14:22:17;;;;;;;6.10;4.03;;;15.90;1.00;;;;;;5921669;24;20419;-85
2023/01/01 14:24:48;;;;;;;4.87;4.40;;;15.90;1.00;;;;;;6123315;23;20399;-84
2023/01/01 14:27:29;;;;;;;7.47;3.97;;;15.80;1.00;;;;;;6194431;23;20393;-83
2023/01/01 14:29:59;;;;;;;6.20;4.27;;;15.80;1.00;;;;;;6206251;23;20419;-85
2023/01/01 14:32:32;;;;;;;4.13;3.70;;;15.70;1.00;;;;;;6200891;23;20410;-84
2023/01/01 14:35:08;;;;;;;7.57;4.50;;;15.70;1.00;;;;;;6199959;23;20395;-85
2023/01/01 14:37:38;;;;;;;6.07;4.30;;;15.60;1.00;;;;;;6196537;23;20393;-84
2023/01/01 14:40:28;;;;;;;10.77;5.20;;;15.60;1.00;;;;;;6202158;23;20410;-86
2023/01/01 14:43:09;;;;;;;5.67;3.90;;;15.50;1.00;;;;;;6198564;23;20438;-84
2023/01/01 14:45:43;;;;;;;6.43;4.00;;;15.50;1.00;;;;;;6200361;23;20407;-84
2023/01/01 14:48:17;;;;;;;9.53;4.00;;;15.40;1.00;;;;;;6191798;23;20418;-85
2023/01/01 14:50:49;;;;;;;5.13;3.70;;;15.40;1.00;;;;;;6199345;23;20428;-85
2023/01/01 14:53:27;;;;;;;7.87;4.10;;;15.40;1.00;;;;;;6199384;23;20409;-85
2023/01/01 14:56:17;;;;;;;7.63;4.80;;;15.30;1.00;;;;;;6196101;23;20396;-82
2023/01/01 14:58:57;;;;;;;6.63;4.40;;;15.30;1.00;;;;;;6194245;23;20409;-84
2023/01/01 15:01:30;;;;;;;7.03;4.30;;;15.30;1.00;;;;;;6192346;23;20426;-84
2023/01/01 15:03:59;;;;;;;7.00;4.47;;;15.30;1.00;;;;;;6193895;23;20402;-84
2023/01/01 15:06:39;;;;;;;;;;;;;;;;;;;;;
2023/01/01 15:09:16;;;;;;;6.90;4.53;;;15.20;1.00;;;;;;6214641;23;41703;-90
2023/01/01 15:12:16;;;;;;;8.30;5.23;;;15.20;1.00;;;;;;6210756;23;20476;-89
2023/01/01 15:14:50;;;;;;;6.60;4.60;;;15.10;1.00;;;;;;6218231;23;20441;-92
2023/01/01 15:17:26;;;;;;;6.30;4.97;;;15.10;1.00;;;;;;6197055;23;20440;-92
2023/01/01 15:20:39;;;;;;;8.00;4.20;;;15.00;1.00;;;;;;6208319;23;20466;-91